createdAt,value
2022-08-27T00:01:25.930Z,101379.35
2022-08-27T00:03:56.936Z,101377.69
2022-08-27T00:06:25.196Z,101378.96
2022-08-27T00:08:53.258Z,101380.63
2022-08-27T00:11:22.032Z,101373.17
2022-08-27T00:13:50.028Z,101373.63
2022-08-27T00:16:18.250Z,101369.05
2022-08-27T00:18:48.085Z,101367.84
2022-08-27T00:21:16.542Z,101372.84
2022-08-27T00:23:44.370Z,101364.18
2022-08-27T00:26:12.326Z,101360.09
2022-08-27T00:28:40.667Z,101356.37
2022-08-27T00:31:08.547Z,101353.10
2022-08-27T00:33:40.038Z,101351.50
2022-08-27T00:36:08.484Z,101345.71
2022-08-27T00:38:36.502Z,101343.26
2022-08-27T00:41:04.303Z,101348.26
2022-08-27T00:43:33.935Z,101344.14
2022-08-27T00:46:08.512Z,101344.99
2022-08-27T00:48:36.781Z,101344.56
2022-08-27T00:51:05.106Z,101351.63
2022-08-27T00:53:34.432Z,101345.02
2022-08-27T00:56:10.434Z,101342.15
2022-08-27T00:58:41.106Z,101342.96
2022-08-27T01:01:13.758Z,101342.15
2022-08-27T01:03:42.059Z,101340.05
2022-08-27T01:06:11.989Z,101340.05
2022-08-27T01:08:55.006Z,101333.91
2022-08-27T01:11:27.632Z,101341.36
2022-08-27T01:14:01.464Z,101337.21
2022-08-27T01:16:33.286Z,101337.21
2022-08-27T01:19:02.180Z,101334.33
2022-08-27T01:22:19.116Z,101337.21
2022-08-27T01:24:54.727Z,101335.15
2022-08-27T01:27:25.886Z,101334.33
2022-08-27T01:29:53.787Z,101329.79
2022-08-27T01:32:29.739Z,101337.21
2022-08-27T01:34:57.997Z,101331.06
2022-08-27T01:37:27.025Z,101333.13
2022-08-27T01:39:56.480Z,101330.63
2022-08-27T01:42:35.317Z,101333.55
2022-08-27T01:45:10.268Z,101329.03
2022-08-27T01:47:38.512Z,101329.43
2022-08-27T01:50:25.812Z,101333.16
2022-08-27T01:52:53.950Z,101335.64
2022-08-27T01:55:24.198Z,101334.04
2022-08-27T01:57:55.677Z,101329.88
2022-08-27T02:00:52.035Z,101338.19
2022-08-27T02:03:24.586Z,101344.44
2022-08-27T02:05:52.631Z,101344.86
2022-08-27T02:08:25.444Z,101342.80
2022-08-27T02:10:53.407Z,101342.41
2022-08-27T02:13:21.442Z,101343.26
2022-08-27T02:15:49.646Z,101342.87
2022-08-27T02:18:17.805Z,101336.62
2022-08-27T02:20:46.397Z,101346.13
2022-08-27T02:23:19.919Z,101338.68
2022-08-27T02:25:50.642Z,101339.10
2022-08-27T02:28:18.409Z,101339.98
2022-08-27T02:30:51.974Z,101346.16
2022-08-27T02:33:19.981Z,101341.16
2022-08-27T02:35:47.802Z,101336.16
2022-08-27T02:38:15.632Z,101339.89
2022-08-27T02:40:43.500Z,101341.13
2022-08-27T02:43:15.735Z,101337.86
2022-08-27T02:45:44.076Z,101327.95
2022-08-27T02:48:12.305Z,101334.56
2022-08-27T02:50:40.339Z,101329.59
2022-08-27T02:53:08.516Z,101321.32
2022-08-27T02:55:37.120Z,101327.95
2022-08-27T02:58:04.992Z,101324.59
2022-08-27T03:00:32.910Z,101316.35
2022-08-27T03:03:00.934Z,101318.84
2022-08-27T03:05:29.398Z,101315.50
2022-08-27T03:07:57.265Z,101320.05
2022-08-27T03:10:25.143Z,101312.16
2022-08-27T03:12:53.023Z,101316.71
2022-08-27T03:15:21.518Z,101308.05
2022-08-27T03:18:08.053Z,101313.41
2022-08-27T03:20:41.932Z,101313.41
2022-08-27T03:23:10.556Z,101313.41
2022-08-27T03:25:38.713Z,101303.86
2022-08-27T03:28:23.382Z,101305.10
2022-08-27T03:30:59.625Z,101312.10
2022-08-27T03:33:27.812Z,101302.16
2022-08-27T03:35:55.631Z,101302.16
2022-08-27T03:38:23.697Z,101309.58
2022-08-27T03:40:57.483Z,101298.82
2022-08-27T03:43:25.376Z,101306.67
2022-08-27T03:46:01.473Z,101295.09
2022-08-27T03:48:33.049Z,101283.52
2022-08-27T03:51:01.152Z,101289.73
2022-08-27T03:53:29.546Z,101288.85
2022-08-27T03:55:57.338Z,101290.95
2022-08-27T03:58:25.157Z,101288.03
2022-08-27T04:00:53.075Z,101289.30
2022-08-27T04:03:20.981Z,101285.58
2022-08-27T04:05:53.890Z,101288.49
2022-08-27T04:08:23.032Z,101285.58
2022-08-27T04:10:51.182Z,101287.25
2022-08-27T04:13:19.515Z,101276.10
2022-08-27T04:15:51.624Z,101282.70
2022-08-27T04:18:19.574Z,101279.80
2022-08-27T04:20:48.353Z,101273.19
2022-08-27T04:23:16.605Z,101278.98
2022-08-27T04:25:44.991Z,101278.16
2022-08-27T04:28:13.379Z,101273.19
2022-08-27T04:30:42.252Z,101278.98
2022-08-27T04:33:10.126Z,101272.30
2022-08-27T04:35:43.317Z,101279.37
2022-08-27T04:38:16.054Z,101277.31
2022-08-27T04:41:02.658Z,101273.58
2022-08-27T04:43:30.577Z,101269.04
2022-08-27T04:45:58.679Z,101267.37
2022-08-27T04:48:26.920Z,101272.70
2022-08-27T04:50:54.820Z,101273.48
2022-08-27T04:53:22.894Z,101266.06
2022-08-27T04:55:52.689Z,101271.42
2022-08-27T04:58:25.525Z,101271.88
2022-08-27T05:00:55.439Z,101279.76
2022-08-27T05:03:27.264Z,101279.76
2022-08-27T05:06:00.876Z,101271.91
2022-08-27T05:08:28.864Z,101283.88
2022-08-27T05:10:56.620Z,101283.45
2022-08-27T05:13:25.529Z,101286.34
2022-08-27T05:16:00.087Z,101282.18
2022-08-27T05:18:27.985Z,101283.81
2022-08-27T05:20:56.135Z,101284.24
2022-08-27T05:23:24.076Z,101280.12
2022-08-27T05:25:55.089Z,101285.05
2022-08-27T05:28:28.056Z,101280.94
2022-08-27T05:30:58.109Z,101284.27
2022-08-27T05:33:26.334Z,101283.81
2022-08-27T05:35:55.702Z,101285.13
2022-08-27T05:38:26.240Z,101280.61
2022-08-27T05:41:06.978Z,101274.40
2022-08-27T05:43:35.145Z,101282.25
2022-08-27T05:46:06.437Z,101278.16
2022-08-27T05:48:35.082Z,101282.70
2022-08-27T05:51:10.708Z,101285.98
2022-08-27T05:53:38.737Z,101278.59
2022-08-27T05:56:06.767Z,101281.92
2022-08-27T05:58:53.358Z,101289.80
2022-08-27T06:01:21.657Z,101292.74
2022-08-27T06:03:49.456Z,101288.63
2022-08-27T06:06:17.271Z,101296.47
2022-08-27T06:08:45.083Z,101288.23
2022-08-27T06:11:13.143Z,101288.27
2022-08-27T06:13:40.911Z,101292.05
2022-08-27T06:16:15.350Z,101300.10
2022-08-27T06:18:44.984Z,101295.72
2022-08-27T06:21:13.001Z,101297.41
2022-08-27T06:23:40.981Z,101292.48
2022-08-27T06:26:10.898Z,101290.42
2022-08-27T06:28:40.682Z,101293.30
2022-08-27T06:31:19.461Z,101296.99
2022-08-27T06:33:47.643Z,101311.90
2022-08-27T06:36:17.195Z,101306.90
2022-08-27T06:38:45.075Z,101300.30
2022-08-27T06:41:23.821Z,101304.45
2022-08-27T06:43:54.815Z,101299.05
2022-08-27T06:46:24.530Z,101308.66
2022-08-27T06:48:53.753Z,101302.09
2022-08-27T06:51:27.379Z,101302.91
2022-08-27T06:53:56.394Z,101299.22
2022-08-27T06:56:24.336Z,101303.30
2022-08-27T06:58:56.484Z,101302.95
2022-08-27T07:01:26.360Z,101305.43
2022-08-27T07:03:56.036Z,101307.91
2022-08-27T07:06:25.115Z,101309.55
2022-08-27T07:08:53.575Z,101309.19
2022-08-27T07:11:21.783Z,101310.01
2022-08-27T07:13:49.625Z,101312.06
2022-08-27T07:16:22.202Z,101310.82
2022-08-27T07:18:52.090Z,101318.70
2022-08-27T07:21:22.941Z,101314.62
2022-08-27T07:23:51.850Z,101312.95
2022-08-27T07:26:20.519Z,101320.86
2022-08-27T07:28:48.386Z,101321.68
2022-08-27T07:31:19.860Z,101322.10
2022-08-27T07:33:52.734Z,101322.92
2022-08-27T07:36:22.248Z,101325.80
2022-08-27T07:38:59.322Z,101324.59
2022-08-27T07:41:30.498Z,101319.62
2022-08-27T07:44:21.305Z,101327.92
2022-08-27T07:46:54.456Z,101329.55
2022-08-27T07:49:23.798Z,101333.74
2022-08-27T07:51:51.938Z,101332.11
2022-08-27T07:54:23.067Z,101335.37
2022-08-27T07:56:55.559Z,101335.77
2022-08-27T07:59:27.143Z,101333.71
2022-08-27T08:02:00.777Z,101332.04
2022-08-27T08:04:28.686Z,101334.98
2022-08-27T08:07:01.571Z,101341.59
2022-08-27T08:09:30.159Z,101335.02
2022-08-27T08:11:57.943Z,101335.45
2022-08-27T08:14:25.979Z,101334.66
2022-08-27T08:16:53.942Z,101342.11
2022-08-27T08:19:21.729Z,101346.27
2022-08-27T08:21:52.979Z,101345.02
2022-08-27T08:24:27.310Z,101352.09
2022-08-27T08:26:55.111Z,101352.97
2022-08-27T08:29:25.415Z,101349.24
2022-08-27T08:31:53.927Z,101355.87
2022-08-27T08:34:21.943Z,101359.64
2022-08-27T08:36:54.607Z,101360.06
2022-08-27T08:39:42.881Z,101363.46
2022-08-27T08:42:25.495Z,101358.49
2022-08-27T08:44:54.805Z,101353.98
2022-08-27T08:47:34.234Z,101359.41
2022-08-27T08:50:04.055Z,101361.96
2022-08-27T08:53:00.484Z,101365.27
2022-08-27T08:55:54.549Z,101370.66
2022-08-27T08:58:43.328Z,101378.11
2022-08-27T09:01:11.194Z,101365.69
2022-08-27T09:03:43.125Z,101366.51
2022-08-27T09:06:30.493Z,101376.84
2022-08-27T09:08:58.324Z,101379.38
2022-08-27T09:11:45.539Z,101380.23
2022-08-27T09:14:41.284Z,101385.56
2022-08-27T09:17:13.875Z,101383.54
2022-08-27T09:19:41.788Z,101370.30
2022-08-27T09:22:39.504Z,101382.76
2022-08-27T09:25:34.266Z,101379.87
2022-08-27T09:28:04.447Z,101373.27
2022-08-27T09:30:34.079Z,101371.57
2022-08-27T09:33:05.253Z,101373.63
2022-08-27T09:35:46.258Z,101379.42
2022-08-27T09:38:41.884Z,101374.48
2022-08-27T09:41:21.143Z,101377.82
2022-08-27T09:43:58.075Z,101371.64
2022-08-27T09:46:27.193Z,101373.77
2022-08-27T09:48:55.156Z,101370.92
2022-08-27T09:51:29.258Z,101369.74
2022-08-27T09:54:02.262Z,101365.20
2022-08-27T09:56:39.819Z,101360.26
2022-08-27T09:59:14.741Z,101361.89
2022-08-27T10:01:54.299Z,101366.93
2022-08-27T10:04:28.005Z,101359.45
2022-08-27T10:06:55.954Z,101359.51
2022-08-27T10:09:33.059Z,101356.23
2022-08-27T10:12:07.202Z,101360.39
2022-08-27T10:14:46.841Z,101354.24
2022-08-27T10:17:36.359Z,101355.13
2022-08-27T10:20:44.533Z,101353.52
2022-08-27T10:23:43.624Z,101358.10
2022-08-27T10:26:16.629Z,101360.20
2022-08-27T10:28:55.750Z,101355.65
2022-08-27T10:31:41.487Z,101355.26
2022-08-27T10:34:15.390Z,101363.98
2022-08-27T10:36:54.824Z,101359.84
2022-08-27T10:39:47.412Z,101363.17
2022-08-27T10:42:36.802Z,101358.16
2022-08-27T10:45:31.225Z,101356.53
2022-08-27T10:48:25.543Z,101359.02
2022-08-27T10:51:03.731Z,101357.35
2022-08-27T10:53:32.903Z,101348.69
2022-08-27T10:56:23.078Z,101352.87
2022-08-27T10:59:00.091Z,101348.72
2022-08-27T11:01:49.663Z,101343.75
2022-08-27T11:04:29.804Z,101339.98
2022-08-27T11:07:10.676Z,101339.98
2022-08-27T11:09:42.350Z,101337.93
2022-08-27T11:12:15.247Z,101332.92
2022-08-27T11:14:59.425Z,101332.08
2022-08-27T11:18:04.025Z,101323.73
2022-08-27T11:21:06.091Z,101326.65
2022-08-27T11:23:38.872Z,101328.31
2022-08-27T11:26:06.843Z,101332.47
2022-08-27T11:28:39.941Z,101326.22
2022-08-27T11:31:24.810Z,101327.86
2022-08-27T11:33:58.539Z,101333.28
2022-08-27T11:36:40.048Z,101324.91
2022-08-27T11:39:30.522Z,101317.40
2022-08-27T11:42:03.178Z,101320.70
2022-08-27T11:44:31.067Z,101318.60
2022-08-27T11:47:15.293Z,101312.33
2022-08-27T11:49:52.122Z,101321.48
2022-08-27T11:52:24.103Z,101312.33
2022-08-27T11:54:56.778Z,101315.63
2022-08-27T11:57:39.815Z,101311.67
2022-08-27T12:00:28.785Z,101304.31
2022-08-27T12:03:06.624Z,101298.70
2022-08-27T12:05:55.962Z,101295.85
2022-08-27T12:08:31.997Z,101293.85
2022-08-27T12:10:59.690Z,101292.84
2022-08-27T12:13:42.435Z,101295.52
2022-08-27T12:16:19.684Z,101290.29
2022-08-27T12:19:08.891Z,101278.88
2022-08-27T12:21:41.572Z,101286.07
2022-08-27T12:24:27.989Z,101281.66
2022-08-27T12:27:03.881Z,101271.45
2022-08-27T12:29:44.090Z,101278.68
2022-08-27T12:32:31.889Z,101287.34
2022-08-27T12:35:37.953Z,101271.06
2022-08-27T12:39:01.697Z,101273.26
2022-08-27T12:41:44.738Z,101278.29
2022-08-27T12:44:32.661Z,101277.24
2022-08-27T12:47:08.838Z,101278.42
2022-08-27T12:49:42.871Z,101274.73
2022-08-27T12:52:34.240Z,101279.40
2022-08-27T12:55:36.180Z,101276.49
2022-08-27T12:58:39.085Z,101271.59
2022-08-27T13:01:25.518Z,101276.49
2022-08-27T13:03:55.402Z,101273.45
2022-08-27T13:06:28.473Z,101277.77
2022-08-27T13:09:01.279Z,101277.41
2022-08-27T13:11:33.926Z,101274.82
2022-08-27T13:14:28.732Z,101270.73
2022-08-27T13:17:01.609Z,101273.52
2022-08-27T13:19:37.163Z,101259.98
2022-08-27T13:22:06.442Z,101259.33
2022-08-27T13:24:36.137Z,101264.43
2022-08-27T13:27:06.815Z,101259.95
2022-08-27T13:29:34.622Z,101257.95
2022-08-27T13:32:02.425Z,101259.06
2022-08-27T13:34:36.552Z,101260.02
2022-08-27T13:37:07.989Z,101265.93
2022-08-27T13:39:37.706Z,101264.36
2022-08-27T13:42:07.333Z,101270.70
2022-08-27T13:44:36.522Z,101267.92
2022-08-27T13:47:06.988Z,101273.38
2022-08-27T13:49:40.292Z,101269.30
2022-08-27T13:52:33.930Z,101271.49
2022-08-27T13:55:16.317Z,101276.95
2022-08-27T13:57:49.215Z,101270.84
2022-08-27T14:00:33.372Z,101266.29
2022-08-27T14:03:03.238Z,101271.72
2022-08-27T14:05:33.049Z,101267.60
2022-08-27T14:08:15.504Z,101267.60
2022-08-27T14:10:46.636Z,101275.51
2022-08-27T14:13:17.265Z,101277.21
2022-08-27T14:15:46.685Z,101280.16
2022-08-27T14:18:48.431Z,101280.58
2022-08-27T14:21:19.175Z,101276.75
2022-08-27T14:23:47.170Z,101278.39
2022-08-27T14:26:15.181Z,101279.60
2022-08-27T14:28:43.788Z,101280.74
2022-08-27T14:31:12.889Z,101277.31
2022-08-27T14:33:40.924Z,101276.55
2022-08-27T14:36:09.132Z,101281.59
2022-08-27T14:38:40.934Z,101284.60
2022-08-27T14:41:08.982Z,101288.46
2022-08-27T14:43:37.152Z,101283.95
2022-08-27T14:46:06.302Z,101294.87
2022-08-27T14:48:34.726Z,101286.20
2022-08-27T14:51:08.228Z,101285.91
2022-08-27T14:53:36.002Z,101298.40
2022-08-27T14:56:04.013Z,101297.65
2022-08-27T14:58:31.850Z,101296.44
2022-08-27T15:00:59.858Z,101294.84
2022-08-27T15:03:27.805Z,101299.84
2022-08-27T15:05:58.671Z,101306.54
2022-08-27T15:08:32.294Z,101306.57
2022-08-27T15:11:00.209Z,101308.66
2022-08-27T15:13:28.584Z,101304.16
2022-08-27T15:15:57.267Z,101302.52
2022-08-27T15:18:25.040Z,101305.82
2022-08-27T15:20:52.805Z,101305.85
2022-08-27T15:23:23.740Z,101311.28
2022-08-27T15:25:51.577Z,101314.23
2022-08-27T15:28:19.477Z,101320.89
2022-08-27T15:30:47.404Z,101325.02
2022-08-27T15:33:15.259Z,101330.87
2022-08-27T15:35:43.921Z,101332.92
2022-08-27T15:38:11.905Z,101342.51
2022-08-27T15:40:39.896Z,101344.56
2022-08-27T15:43:08.133Z,101342.47
2022-08-27T15:45:37.662Z,101343.72
2022-08-27T15:48:05.616Z,101355.78
2022-08-27T15:50:33.583Z,101340.38
2022-08-27T15:53:07.595Z,101353.27
2022-08-27T15:55:38.001Z,101353.27
2022-08-27T15:58:05.905Z,101348.26
2022-08-27T16:00:38.002Z,101345.38
2022-08-27T16:03:10.717Z,101342.51
2022-08-27T16:05:39.951Z,101344.96
2022-08-27T16:08:09.136Z,101342.47
2022-08-27T16:10:39.502Z,101339.98
2022-08-27T16:13:07.276Z,101334.59
2022-08-27T16:15:38.226Z,101337.50
2022-08-27T16:18:06.207Z,101332.50
2022-08-27T16:20:34.070Z,101329.16
2022-08-27T16:23:02.630Z,101333.35
2022-08-27T16:25:30.529Z,101325.02
2022-08-27T16:28:02.030Z,101312.59
2022-08-27T16:30:30.017Z,101312.13
2022-08-27T16:32:57.807Z,101320.05
2022-08-27T16:35:35.033Z,101313.80
2022-08-27T16:38:02.855Z,101306.77
2022-08-27T16:40:30.812Z,101312.95
2022-08-27T16:42:58.915Z,101309.22
2022-08-27T16:45:30.855Z,101305.04
2022-08-27T16:48:17.162Z,101310.04
2022-08-27T16:50:45.041Z,101312.52
2022-08-27T16:53:16.947Z,101313.73
2022-08-27T16:55:45.663Z,101319.98
2022-08-27T16:58:23.285Z,101319.98
2022-08-27T17:00:53.359Z,101314.16
2022-08-27T17:03:21.693Z,101316.64
2022-08-27T17:05:49.772Z,101315.37
2022-08-27T17:08:28.496Z,101313.73
2022-08-27T17:10:57.208Z,101310.40
2022-08-27T17:13:28.341Z,101314.13
2022-08-27T17:15:56.772Z,101307.48
2022-08-27T17:18:25.594Z,101315.37
2022-08-27T17:20:53.532Z,101318.70
2022-08-27T17:23:27.559Z,101314.09
2022-08-27T17:25:55.298Z,101314.09
2022-08-27T17:28:23.208Z,101314.95
2022-08-27T17:30:51.144Z,101314.09
2022-08-27T17:33:30.931Z,101319.09
2022-08-27T17:35:59.097Z,101312.00
2022-08-27T17:38:26.848Z,101312.42
2022-08-27T17:40:56.138Z,101316.58
2022-08-27T17:43:23.963Z,101315.30
2022-08-27T17:45:51.827Z,101314.06
2022-08-27T17:48:24.821Z,101324.85
2022-08-27T17:50:54.864Z,101317.36
2022-08-27T17:53:22.612Z,101317.33
2022-08-27T17:55:50.453Z,101322.73
2022-08-27T17:58:18.233Z,101323.12
2022-08-27T18:00:46.166Z,101331.81
2022-08-27T18:03:18.973Z,101329.72
2022-08-27T18:05:47.894Z,101331.39
2022-08-27T18:08:16.123Z,101331.36
2022-08-27T18:10:44.163Z,101330.54
2022-08-27T18:13:14.211Z,101346.69
2022-08-27T18:15:42.518Z,101342.05
2022-08-27T18:18:11.210Z,101351.56
2022-08-27T18:20:40.895Z,101351.17
2022-08-27T18:23:11.016Z,101363.56
2022-08-27T18:25:39.176Z,101368.92
2022-08-27T18:28:11.087Z,101367.26
2022-08-27T18:30:40.697Z,101374.29
2022-08-27T18:33:09.203Z,101382.13
2022-08-27T18:35:37.119Z,101377.98
2022-08-27T18:38:05.332Z,101381.28
2022-08-27T18:40:41.077Z,101385.83
2022-08-27T18:43:08.971Z,101397.44
2022-08-27T18:45:38.649Z,101394.91
2022-08-27T18:48:18.119Z,101399.07
2022-08-27T18:50:48.351Z,101402.77
2022-08-27T18:53:17.821Z,101412.31
2022-08-27T18:55:45.763Z,101413.91
2022-08-27T18:58:13.780Z,101414.34
2022-08-27T19:00:42.756Z,101419.73
2022-08-27T19:03:11.034Z,101419.31
2022-08-27T19:05:38.890Z,101415.98
2022-08-27T19:08:10.302Z,101414.27
2022-08-27T19:10:38.151Z,101418.43
2022-08-27T19:13:05.956Z,101424.64
2022-08-27T19:15:33.697Z,101423.40
2022-08-27T19:18:04.417Z,101428.73
2022-08-27T19:20:32.400Z,101436.18
2022-08-27T19:23:00.778Z,101424.54
2022-08-27T19:25:29.260Z,101435.72
2022-08-27T19:27:57.048Z,101441.90
2022-08-27T19:30:24.888Z,101438.17
2022-08-27T19:32:55.053Z,101432.78
2022-08-27T19:35:25.644Z,101446.02
2022-08-27T19:37:53.578Z,101441.87
2022-08-27T19:40:23.077Z,101439.38
2022-08-27T19:42:51.279Z,101436.08
2022-08-27T19:45:23.059Z,101444.78
2022-08-27T19:47:52.603Z,101442.69
2022-08-27T19:50:20.722Z,101448.48
2022-08-27T19:52:49.268Z,101442.69
2022-08-27T19:55:17.195Z,101436.45
2022-08-27T19:57:45.371Z,101445.11
2022-08-27T20:00:14.476Z,101445.86
2022-08-27T20:02:42.281Z,101444.55
2022-08-27T20:05:18.610Z,101437.03
2022-08-27T20:07:48.414Z,101437.78
2022-08-27T20:10:36.297Z,101433.66
2022-08-27T20:13:05.257Z,101436.57
2022-08-27T20:15:33.585Z,101438.24
2022-08-27T20:18:02.356Z,101432.42
2022-08-27T20:20:30.300Z,101435.33
2022-08-27T20:22:58.341Z,101428.30
2022-08-27T20:25:26.435Z,101431.60
2022-08-27T20:27:54.221Z,101442.75
2022-08-27T20:30:24.075Z,101426.14
2022-08-27T20:32:51.948Z,101439.02
2022-08-27T20:35:20.236Z,101440.70
2022-08-27T20:37:48.012Z,101436.15
2022-08-27T20:40:22.117Z,101427.88
2022-08-27T20:42:49.936Z,101431.15
2022-08-27T20:45:17.717Z,101431.15
2022-08-27T20:47:46.455Z,101434.88
2022-08-27T20:50:15.152Z,101432.39
2022-08-27T20:52:43.061Z,101429.84
2022-08-27T20:55:11.162Z,101435.62
2022-08-27T20:58:02.088Z,101435.56
2022-08-27T21:00:34.023Z,101436.77
2022-08-27T21:03:01.857Z,101438.89
2022-08-27T21:05:30.719Z,101436.41
2022-08-27T21:07:58.459Z,101434.25
2022-08-27T21:10:26.251Z,101447.46
2022-08-27T21:12:54.022Z,101436.34
2022-08-27T21:15:21.865Z,101439.61
2022-08-27T21:17:49.609Z,101437.13
2022-08-27T21:20:17.501Z,101437.45
2022-08-27T21:22:45.484Z,101435.72
2022-08-27T21:25:14.081Z,101447.72
2022-08-27T21:27:42.531Z,101449.36
2022-08-27T21:30:12.161Z,101445.14
2022-08-27T21:32:39.993Z,101446.35
2022-08-27T21:35:08.079Z,101442.16
2022-08-27T21:37:35.995Z,101440.89
2022-08-27T21:40:04.812Z,101438.83
2022-08-27T21:42:32.643Z,101437.98
2022-08-27T21:45:00.442Z,101437.16
2022-08-27T21:47:28.409Z,101439.61
2022-08-27T21:49:56.263Z,101443.73
2022-08-27T21:52:24.891Z,101444.13
2022-08-27T21:54:52.601Z,101445.34
2022-08-27T21:57:20.909Z,101446.58
2022-08-27T21:59:49.832Z,101450.70
2022-08-27T22:02:38.614Z,101451.09
2022-08-27T22:05:06.915Z,101448.15
2022-08-27T22:07:34.680Z,101451.38
2022-08-27T22:10:02.528Z,101464.13
2022-08-27T22:12:30.364Z,101453.25
2022-08-27T22:14:58.152Z,101461.91
2022-08-27T22:17:26.018Z,101460.27
2022-08-27T22:19:53.857Z,101450.73
2022-08-27T22:22:21.689Z,101452.33
2022-08-27T22:24:49.472Z,101456.42
2022-08-27T22:27:19.651Z,101455.18
2022-08-27T22:29:47.412Z,101452.27
2022-08-27T22:32:15.180Z,101456.81
2022-08-27T22:34:42.960Z,101459.72
2022-08-27T22:37:10.781Z,101440.70
2022-08-27T22:39:38.701Z,101450.53
2022-08-27T22:42:07.043Z,101443.05
2022-08-27T22:44:34.915Z,101453.38
2022-08-27T22:47:02.886Z,101444.26
2022-08-27T22:49:30.778Z,101440.98
2022-08-27T22:51:58.571Z,101440.92
2022-08-27T22:54:26.308Z,101435.46
2022-08-27T22:56:54.111Z,101441.58
2022-08-27T22:59:21.926Z,101439.91
2022-08-27T23:01:49.732Z,101438.27
2022-08-27T23:04:17.536Z,101439.88
2022-08-27T23:06:45.413Z,101437.81
2022-08-27T23:09:13.204Z,101438.63
2022-08-27T23:11:40.961Z,101434.91
2022-08-27T23:14:08.738Z,101432.03
2022-08-27T23:16:36.524Z,101434.09
2022-08-27T23:19:04.375Z,101436.57
2022-08-27T23:21:32.256Z,101429.97
2022-08-27T23:24:00.068Z,101436.51
2022-08-27T23:26:46.549Z,101441.48
2022-08-27T23:29:14.291Z,101447.27
2022-08-27T23:31:42.114Z,101439.77
2022-08-27T23:34:09.991Z,101431.51
2022-08-27T23:36:38.383Z,101440.56
2022-08-27T23:39:06.132Z,101440.13
2022-08-27T23:41:33.960Z,101439.68
2022-08-27T23:44:01.776Z,101445.47
2022-08-27T23:46:29.719Z,101438.41
2022-08-27T23:48:57.538Z,101435.49
2022-08-27T23:51:25.431Z,101434.68
2022-08-27T23:53:53.270Z,101439.22
2022-08-27T23:56:21.042Z,101443.80
2022-08-27T23:58:56.419Z,101441.34
